createdAt,value
2022-12-25T00:01:25.947Z,100305.36
2022-12-25T00:03:59.865Z,100294.42
2022-12-25T00:06:32.592Z,100303.91
2022-12-25T00:09:05.006Z,100285.38
2022-12-25T00:11:37.574Z,100303.80
2022-12-25T00:14:10.024Z,100322.87
2022-12-25T00:16:42.672Z,100326.95
2022-12-25T00:19:15.343Z,100322.58
2022-12-25T00:21:47.982Z,100322.13
2022-12-25T00:24:20.392Z,100325.59
2022-12-25T00:26:53.058Z,100320.28
2022-12-25T00:29:25.672Z,100335.42
2022-12-25T00:31:58.323Z,100339.84
2022-12-25T00:34:31.365Z,100344.52
2022-12-25T00:37:04.323Z,100345.38
2022-12-25T00:39:37.140Z,100335.77
2022-12-25T00:42:20.542Z,100338.70
2022-12-25T00:44:53.559Z,100342.59
2022-12-25T00:47:26.394Z,100342.23
2022-12-25T00:49:59.118Z,100340.36
2022-12-25T00:52:32.281Z,100337.42
2022-12-25T00:55:05.681Z,100327.13
2022-12-25T00:57:38.699Z,100339.75
2022-12-25T01:00:11.973Z,100344.30
2022-12-25T01:02:44.696Z,100347.44
2022-12-25T01:05:18.103Z,100340.38
2022-12-25T01:07:50.891Z,100347.38
2022-12-25T01:10:24.035Z,100348.52
2022-12-25T01:12:57.152Z,100346.52
2022-12-25T01:15:29.898Z,100346.81
2022-12-25T01:18:07.602Z,100343.63
2022-12-25T01:20:41.915Z,100328.05
2022-12-25T01:23:14.186Z,100338.19
2022-12-25T01:25:47.312Z,100347.05
2022-12-25T01:28:20.356Z,100342.45
2022-12-25T01:30:53.108Z,100346.63
2022-12-25T01:33:25.776Z,100342.85
2022-12-25T01:35:59.094Z,100338.08
2022-12-25T01:38:31.974Z,100326.84
2022-12-25T01:41:04.999Z,100331.02
2022-12-25T01:43:38.155Z,100329.31
2022-12-25T01:46:11.312Z,100318.20
2022-12-25T01:48:44.386Z,100319.19
2022-12-25T01:51:27.035Z,100327.17
2022-12-25T01:54:03.928Z,100325.59
2022-12-25T01:56:38.283Z,100328.00
2022-12-25T01:59:12.561Z,100327.39
2022-12-25T02:01:45.310Z,100325.52
2022-12-25T02:04:41.174Z,100328.02
2022-12-25T02:07:22.566Z,100318.39
2022-12-25T02:09:56.065Z,100336.00
2022-12-25T02:12:32.652Z,100343.70
2022-12-25T02:15:22.011Z,100344.30
2022-12-25T02:18:11.904Z,100345.95
2022-12-25T02:20:53.114Z,100336.43
2022-12-25T02:23:55.820Z,100345.54
2022-12-25T02:26:44.765Z,100358.63
2022-12-25T02:29:34.560Z,100353.98
2022-12-25T02:32:24.272Z,100339.45
2022-12-25T02:35:23.016Z,100357.14
2022-12-25T02:38:08.512Z,100346.46
2022-12-25T02:40:46.684Z,100359.57
2022-12-25T02:43:57.987Z,100365.60
2022-12-25T02:46:54.334Z,100374.73
2022-12-25T02:49:48.089Z,100385.34
2022-12-25T02:52:43.430Z,100394.38
2022-12-25T02:55:39.740Z,100391.25
2022-12-25T02:58:36.465Z,100382.05
2022-12-25T03:01:36.045Z,100376.34
2022-12-25T03:04:31.534Z,100387.10
2022-12-25T03:07:19.229Z,100386.66
2022-12-25T03:10:25.396Z,100374.09
2022-12-25T03:13:02.346Z,100401.52
2022-12-25T03:15:55.118Z,100385.02
2022-12-25T03:18:30.733Z,100384.94
2022-12-25T03:21:22.385Z,100376.95
2022-12-25T03:24:19.333Z,100393.13
2022-12-25T03:26:58.485Z,100396.54
2022-12-25T03:29:54.995Z,100401.27
2022-12-25T03:32:30.427Z,100408.87
2022-12-25T03:35:26.127Z,100419.64
2022-12-25T03:38:35.832Z,100415.67
2022-12-25T03:41:32.728Z,100432.13
2022-12-25T03:44:32.989Z,100440.34
2022-12-25T03:47:36.634Z,100442.87
2022-12-25T03:50:51.333Z,100443.06
2022-12-25T03:53:52.336Z,100443.10
2022-12-25T03:56:44.013Z,100429.64
2022-12-25T03:59:38.824Z,100446.51
2022-12-25T04:02:30.828Z,100439.61
2022-12-25T04:05:22.808Z,100445.72
2022-12-25T04:08:14.305Z,100460.17
2022-12-25T04:11:05.997Z,100464.83
2022-12-25T04:13:57.228Z,100457.11
2022-12-25T04:16:49.176Z,100450.91
2022-12-25T04:19:40.908Z,100455.80
2022-12-25T04:22:32.219Z,100461.09
2022-12-25T04:25:23.508Z,100474.43
2022-12-25T04:28:20.888Z,100475.94
2022-12-25T04:31:12.226Z,100474.35
2022-12-25T04:34:03.796Z,100478.15
2022-12-25T04:36:36.850Z,100479.74
2022-12-25T04:39:10.562Z,100474.16
2022-12-25T04:41:43.201Z,100485.84
2022-12-25T04:44:16.041Z,100476.81
2022-12-25T04:46:48.606Z,100454.67
2022-12-25T04:49:21.680Z,100480.95
2022-12-25T04:51:54.372Z,100487.55
2022-12-25T04:54:27.204Z,100475.84
2022-12-25T04:57:00.394Z,100493.50
2022-12-25T04:59:33.270Z,100496.41
2022-12-25T05:02:06.072Z,100501.01
2022-12-25T05:04:38.972Z,100483.96
2022-12-25T05:07:11.558Z,100493.62
2022-12-25T05:09:44.276Z,100503.81
2022-12-25T05:12:16.786Z,100503.44
2022-12-25T05:14:49.403Z,100507.11
2022-12-25T05:17:21.950Z,100510.25
2022-12-25T05:19:54.758Z,100509.09
2022-12-25T05:22:27.266Z,100514.88
2022-12-25T05:24:59.826Z,100514.35
2022-12-25T05:27:32.579Z,100518.34
2022-12-25T05:30:05.325Z,100519.56
2022-12-25T05:32:37.803Z,100520.30
2022-12-25T05:35:10.961Z,100522.58
2022-12-25T05:37:43.924Z,100525.11
2022-12-25T05:40:16.768Z,100522.33
2022-12-25T05:42:49.604Z,100523.77
2022-12-25T05:45:22.299Z,100527.95
2022-12-25T05:47:58.659Z,100530.89
2022-12-25T05:50:31.558Z,100528.21
2022-12-25T05:53:12.696Z,100537.25
2022-12-25T05:55:46.029Z,100542.33
2022-12-25T05:58:18.640Z,100548.99
2022-12-25T06:00:51.371Z,100541.90
2022-12-25T06:03:23.963Z,100561.24
2022-12-25T06:05:56.984Z,100547.23
2022-12-25T06:08:29.809Z,100557.48
2022-12-25T06:11:05.206Z,100537.92
2022-12-25T06:13:38.605Z,100560.02
2022-12-25T06:16:13.225Z,100548.50
2022-12-25T06:18:48.590Z,100563.52
2022-12-25T06:21:21.749Z,100563.08
2022-12-25T06:23:54.904Z,100563.98
2022-12-25T06:26:27.743Z,100568.29
2022-12-25T06:29:00.947Z,100547.17
2022-12-25T06:31:34.151Z,100558.92
2022-12-25T06:34:07.059Z,100565.66
2022-12-25T06:36:41.936Z,100576.55
2022-12-25T06:39:14.703Z,100588.05
2022-12-25T06:41:47.614Z,100588.48
2022-12-25T06:44:20.267Z,100586.34
2022-12-25T06:46:54.281Z,100590.46
2022-12-25T06:49:27.445Z,100596.20
2022-12-25T06:52:00.673Z,100603.03
2022-12-25T06:54:33.222Z,100598.76
2022-12-25T06:57:05.750Z,100605.95
2022-12-25T06:59:38.705Z,100618.71
2022-12-25T07:02:22.349Z,100620.93
2022-12-25T07:04:55.780Z,100621.42
2022-12-25T07:07:28.705Z,100619.36
2022-12-25T07:10:01.465Z,100602.47
2022-12-25T07:12:34.079Z,100614.06
2022-12-25T07:15:06.916Z,100619.70
2022-12-25T07:17:40.030Z,100638.95
2022-12-25T07:20:13.062Z,100636.45
2022-12-25T07:22:45.927Z,100633.53
2022-12-25T07:25:18.832Z,100636.52
2022-12-25T07:27:51.755Z,100626.98
2022-12-25T07:30:24.476Z,100633.61
2022-12-25T07:32:57.192Z,100625.38
2022-12-25T07:35:29.978Z,100624.60
2022-12-25T07:38:02.930Z,100636.45
2022-12-25T07:40:36.257Z,100639.92
2022-12-25T07:43:08.865Z,100649.73
2022-12-25T07:45:42.477Z,100650.14
2022-12-25T07:48:16.801Z,100649.33
2022-12-25T07:50:49.794Z,100654.19
2022-12-25T07:53:22.871Z,100657.90
2022-12-25T07:56:03.004Z,100663.77
2022-12-25T07:58:36.607Z,100648.62
2022-12-25T08:01:13.947Z,100663.73
2022-12-25T08:03:57.449Z,100675.31
2022-12-25T08:06:34.167Z,100680.77
2022-12-25T08:09:11.250Z,100678.44
2022-12-25T08:11:48.209Z,100681.06
2022-12-25T08:14:20.983Z,100690.58
2022-12-25T08:16:53.678Z,100690.16
2022-12-25T08:19:26.436Z,100705.46
2022-12-25T08:21:59.367Z,100714.69
2022-12-25T08:24:32.101Z,100691.53
2022-12-25T08:27:05.003Z,100685.52
2022-12-25T08:29:37.407Z,100718.79
2022-12-25T08:32:10.268Z,100697.94
2022-12-25T08:34:43.368Z,100721.73
2022-12-25T08:37:16.144Z,100718.71
2022-12-25T08:39:49.099Z,100725.00
2022-12-25T08:42:22.150Z,100726.97
2022-12-25T08:44:55.205Z,100716.95
2022-12-25T08:47:28.595Z,100735.20
2022-12-25T08:50:01.315Z,100740.86
2022-12-25T08:52:33.965Z,100740.54
2022-12-25T08:55:08.717Z,100739.70
2022-12-25T08:57:42.767Z,100745.20
2022-12-25T09:00:15.777Z,100746.30
2022-12-25T09:02:49.021Z,100743.17
2022-12-25T09:05:22.200Z,100750.66
2022-12-25T09:07:55.235Z,100753.80
2022-12-25T09:10:28.151Z,100753.71
2022-12-25T09:13:00.955Z,100754.55
2022-12-25T09:15:34.061Z,100740.77
2022-12-25T09:18:07.162Z,100755.09
2022-12-25T09:20:39.991Z,100758.05
2022-12-25T09:23:14.317Z,100764.95
2022-12-25T09:25:47.230Z,100766.96
2022-12-25T09:28:19.615Z,100762.25
2022-12-25T09:30:55.621Z,100772.17
2022-12-25T09:33:28.996Z,100775.83
2022-12-25T09:36:07.568Z,100775.81
2022-12-25T09:38:40.359Z,100784.34
2022-12-25T09:41:53.495Z,100784.24
2022-12-25T09:44:31.007Z,100775.02
2022-12-25T09:47:12.942Z,100789.35
2022-12-25T09:49:56.376Z,100798.73
2022-12-25T09:52:48.069Z,100796.92
2022-12-25T09:55:25.538Z,100799.25
2022-12-25T09:58:04.745Z,100802.08
2022-12-25T10:00:53.701Z,100797.23
2022-12-25T10:04:01.513Z,100798.73
2022-12-25T10:07:19.250Z,100794.92
2022-12-25T10:10:30.440Z,100795.02
2022-12-25T10:13:12.115Z,100798.09
2022-12-25T10:16:08.727Z,100799.01
2022-12-25T10:19:20.989Z,100790.05
2022-12-25T10:21:58.155Z,100804.82
2022-12-25T10:24:56.211Z,100806.65
2022-12-25T10:27:43.227Z,100806.05
2022-12-25T10:30:23.824Z,100808.27
2022-12-25T10:32:59.435Z,100805.49
2022-12-25T10:35:33.280Z,100795.59
2022-12-25T10:38:15.056Z,100808.61
2022-12-25T10:41:12.303Z,100801.45
2022-12-25T10:43:53.292Z,100793.08
2022-12-25T10:46:30.356Z,100798.16
2022-12-25T10:49:05.843Z,100806.39
2022-12-25T10:51:40.455Z,100808.09
2022-12-25T10:54:27.856Z,100805.60
2022-12-25T10:57:03.584Z,100795.17
2022-12-25T10:59:47.658Z,100796.06
2022-12-25T11:02:33.178Z,100811.99
2022-12-25T11:05:16.878Z,100803.58
2022-12-25T11:07:56.061Z,100791.25
2022-12-25T11:10:45.128Z,100793.21
2022-12-25T11:13:31.994Z,100802.84
2022-12-25T11:16:10.201Z,100809.23
2022-12-25T11:18:54.794Z,100803.11
2022-12-25T11:21:39.348Z,100808.60
2022-12-25T11:24:24.509Z,100813.80
2022-12-25T11:27:01.214Z,100813.70
2022-12-25T11:29:43.664Z,100815.84
2022-12-25T11:32:32.001Z,100827.69
2022-12-25T11:35:13.486Z,100824.38
2022-12-25T11:37:52.720Z,100824.83
2022-12-25T11:40:50.166Z,100822.10
2022-12-25T11:43:42.602Z,100818.50
2022-12-25T11:46:26.442Z,100828.31
2022-12-25T11:49:08.750Z,100837.91
2022-12-25T11:51:46.029Z,100834.17
2022-12-25T11:54:35.102Z,100838.99
2022-12-25T11:57:09.554Z,100827.80
2022-12-25T11:59:58.241Z,100831.84
2022-12-25T12:02:59.492Z,100836.91
2022-12-25T12:05:40.340Z,100844.14
2022-12-25T12:08:14.838Z,100845.33
2022-12-25T12:11:17.818Z,100840.06
2022-12-25T12:13:55.962Z,100852.04
2022-12-25T12:16:29.465Z,100844.51
2022-12-25T12:19:13.499Z,100848.68
2022-12-25T12:21:51.924Z,100855.86
2022-12-25T12:24:27.336Z,100863.48
2022-12-25T12:27:07.923Z,100865.83
2022-12-25T12:29:50.547Z,100871.00
2022-12-25T12:32:32.436Z,100874.60
2022-12-25T12:35:26.871Z,100866.65
2022-12-25T12:38:12.436Z,100875.55
2022-12-25T12:41:08.082Z,100874.37
2022-12-25T12:43:42.162Z,100878.29
2022-12-25T12:46:43.864Z,100893.60
2022-12-25T12:49:34.018Z,100907.88
2022-12-25T12:52:23.127Z,100911.40
2022-12-25T12:55:08.615Z,100913.48
2022-12-25T12:57:41.904Z,100916.61
2022-12-25T13:00:22.108Z,100931.13
2022-12-25T13:03:14.381Z,100930.39
2022-12-25T13:06:13.585Z,100931.51
2022-12-25T13:09:08.412Z,100926.52
2022-12-25T13:11:44.956Z,100935.47
2022-12-25T13:14:20.636Z,100946.91
2022-12-25T13:16:55.655Z,100948.73
2022-12-25T13:19:31.206Z,100934.48
2022-12-25T13:22:06.849Z,100946.27
2022-12-25T13:24:40.303Z,100941.38
2022-12-25T13:27:32.342Z,100941.26
2022-12-25T13:30:16.556Z,100943.88
2022-12-25T13:32:49.736Z,100945.46
2022-12-25T13:35:25.076Z,100947.27
2022-12-25T13:37:58.096Z,100945.77
2022-12-25T13:40:31.635Z,100955.46
2022-12-25T13:43:05.712Z,100958.77
2022-12-25T13:45:38.627Z,100962.88
2022-12-25T13:48:29.244Z,100966.41
2022-12-25T13:51:04.013Z,100961.00
2022-12-25T13:53:37.028Z,100982.79
2022-12-25T13:56:14.811Z,100992.99
2022-12-25T13:58:49.475Z,100993.70
2022-12-25T14:01:22.915Z,100987.48
2022-12-25T14:03:57.552Z,100987.59
2022-12-25T14:06:34.331Z,100985.03
2022-12-25T14:09:07.773Z,100991.92
2022-12-25T14:11:42.990Z,100995.77
2022-12-25T14:14:26.869Z,101001.89
2022-12-25T14:17:01.380Z,101012.94
2022-12-25T14:19:36.176Z,101002.00
2022-12-25T14:22:29.031Z,101013.52
2022-12-25T14:25:02.143Z,101020.33
2022-12-25T14:27:35.935Z,101024.02
2022-12-25T14:30:16.702Z,101025.09
2022-12-25T14:32:55.189Z,101029.89
2022-12-25T14:35:28.660Z,101034.05
2022-12-25T14:38:02.946Z,101036.10
2022-12-25T14:40:36.717Z,101042.15
2022-12-25T14:43:25.759Z,101037.62
2022-12-25T14:46:04.464Z,101040.22
2022-12-25T14:48:37.633Z,101042.10
2022-12-25T14:51:18.676Z,101046.21
2022-12-25T14:53:56.443Z,101053.59
2022-12-25T14:56:31.734Z,101051.67
2022-12-25T14:59:04.889Z,101057.64
2022-12-25T15:01:45.190Z,101064.90
2022-12-25T15:04:21.014Z,101069.41
2022-12-25T15:06:59.791Z,101056.27
2022-12-25T15:09:32.784Z,101073.94
2022-12-25T15:12:05.780Z,101073.03
2022-12-25T15:14:40.721Z,101073.27
2022-12-25T15:17:28.671Z,101081.17
2022-12-25T15:20:04.865Z,101081.50
2022-12-25T15:23:02.433Z,101082.10
2022-12-25T15:25:32.581Z,101084.06
2022-12-25T15:28:10.836Z,101086.45
2022-12-25T15:30:47.663Z,101089.02
2022-12-25T15:33:21.478Z,101103.80
2022-12-25T15:35:54.148Z,101101.69
2022-12-25T15:38:27.117Z,101104.35
2022-12-25T15:41:00.110Z,101104.90
2022-12-25T15:43:41.295Z,101112.21
2022-12-25T15:46:17.158Z,101113.08
2022-12-25T15:48:50.182Z,101112.38
2022-12-25T15:51:23.368Z,101117.55
2022-12-25T15:53:56.898Z,101115.17
2022-12-25T15:56:30.161Z,101102.64
2022-12-25T15:59:03.785Z,101111.86
2022-12-25T16:01:36.980Z,101109.14
2022-12-25T16:04:10.086Z,101119.84
2022-12-25T16:06:43.562Z,101121.88
2022-12-25T16:09:17.783Z,101118.96
2022-12-25T16:11:51.018Z,101131.53
2022-12-25T16:14:23.824Z,101128.08
2022-12-25T16:16:57.101Z,101134.05
2022-12-25T16:19:31.022Z,101123.40
2022-12-25T16:22:04.433Z,101132.42
2022-12-25T16:24:37.498Z,101131.45
2022-12-25T16:27:10.710Z,101127.35
2022-12-25T16:29:43.950Z,101115.56
2022-12-25T16:32:17.742Z,101115.35
2022-12-25T16:34:51.736Z,101133.56
2022-12-25T16:37:24.704Z,101129.34
2022-12-25T16:40:01.665Z,101143.95
2022-12-25T16:42:35.450Z,101145.45
2022-12-25T16:45:09.170Z,101142.85
2022-12-25T16:47:42.560Z,101151.30
2022-12-25T16:50:16.667Z,101158.20
2022-12-25T16:52:49.912Z,101150.66
2022-12-25T16:55:29.370Z,101161.36
2022-12-25T16:58:05.097Z,101158.01
2022-12-25T17:00:38.557Z,101162.34
2022-12-25T17:03:11.651Z,101153.46
2022-12-25T17:05:45.257Z,101156.20
2022-12-25T17:08:18.296Z,101151.38
2022-12-25T17:10:50.757Z,101141.68
2022-12-25T17:13:23.664Z,101135.13
2022-12-25T17:15:56.517Z,101150.95
2022-12-25T17:18:29.545Z,101140.39
2022-12-25T17:21:02.634Z,101159.10
2022-12-25T17:23:35.584Z,101160.98
2022-12-25T17:26:09.024Z,101163.18
2022-12-25T17:28:41.981Z,101162.55
2022-12-25T17:31:16.006Z,101164.27
2022-12-25T17:33:49.044Z,101163.88
2022-12-25T17:36:23.248Z,101163.73
2022-12-25T17:38:56.124Z,101170.42
2022-12-25T17:41:28.948Z,101175.14
2022-12-25T17:44:01.739Z,101174.77
2022-12-25T17:46:35.064Z,101173.90
2022-12-25T17:49:09.172Z,101179.66
2022-12-25T17:51:42.009Z,101176.63
2022-12-25T17:54:15.795Z,101179.71
2022-12-25T17:56:49.669Z,101172.42
2022-12-25T17:59:30.213Z,101180.84
2022-12-25T18:02:02.990Z,101176.14
2022-12-25T18:04:35.955Z,101177.32
2022-12-25T18:07:08.611Z,101177.80
2022-12-25T18:09:41.276Z,101173.75
2022-12-25T18:12:14.112Z,101164.96
2022-12-25T18:14:46.873Z,101163.34
2022-12-25T18:17:19.702Z,101180.88
2022-12-25T18:19:55.531Z,101169.71
2022-12-25T18:22:28.228Z,101178.74
2022-12-25T18:25:01.016Z,101178.35
2022-12-25T18:27:33.489Z,101173.90
2022-12-25T18:30:07.327Z,101177.38
2022-12-25T18:32:40.046Z,101182.20
2022-12-25T18:35:12.835Z,101190.88
2022-12-25T18:37:45.757Z,101189.10
2022-12-25T18:40:18.388Z,101186.16
2022-12-25T18:42:54.841Z,101188.64
2022-12-25T18:45:33.749Z,101195.70
2022-12-25T18:48:07.232Z,101193.78
2022-12-25T18:50:41.881Z,101183.75
2022-12-25T18:53:14.839Z,101208.06
2022-12-25T18:55:47.646Z,101198.52
2022-12-25T18:58:20.672Z,101199.72
2022-12-25T19:00:53.724Z,101211.36
2022-12-25T19:03:27.297Z,101209.66
2022-12-25T19:06:00.538Z,101200.47
2022-12-25T19:08:34.003Z,101197.47
2022-12-25T19:11:10.664Z,101196.77
2022-12-25T19:13:43.442Z,101217.33
2022-12-25T19:16:16.955Z,101220.26
2022-12-25T19:18:51.288Z,101222.05
2022-12-25T19:21:24.623Z,101226.21
2022-12-25T19:23:58.236Z,101226.73
2022-12-25T19:26:31.021Z,101228.31
2022-12-25T19:29:04.658Z,101233.98
2022-12-25T19:31:38.431Z,101231.65
2022-12-25T19:34:16.101Z,101244.30
2022-12-25T19:36:49.059Z,101248.06
2022-12-25T19:39:21.868Z,101251.61
2022-12-25T19:41:54.770Z,101230.42
2022-12-25T19:44:27.654Z,101240.27
2022-12-25T19:47:00.527Z,101266.52
2022-12-25T19:49:33.302Z,101267.48
2022-12-25T19:52:07.377Z,101257.45
2022-12-25T19:54:40.314Z,101261.23
2022-12-25T19:57:13.332Z,101267.17
2022-12-25T19:59:46.274Z,101282.91
2022-12-25T20:02:19.387Z,101270.27
2022-12-25T20:04:52.344Z,101282.95
2022-12-25T20:07:25.160Z,101282.20
2022-12-25T20:09:59.392Z,101285.73
2022-12-25T20:12:32.159Z,101295.16
2022-12-25T20:15:05.231Z,101300.98
2022-12-25T20:17:38.055Z,101293.38
2022-12-25T20:20:11.674Z,101289.92
2022-12-25T20:22:44.678Z,101287.45
2022-12-25T20:25:18.389Z,101296.20
2022-12-25T20:27:51.391Z,101293.09
2022-12-25T20:30:24.189Z,101294.56
2022-12-25T20:32:58.373Z,101290.57
2022-12-25T20:35:31.462Z,101302.98
2022-12-25T20:38:04.072Z,101303.49
2022-12-25T20:40:59.931Z,101310.98
2022-12-25T20:43:31.369Z,101309.37
2022-12-25T20:46:04.611Z,101305.22
2022-12-25T20:48:38.210Z,101292.36
2022-12-25T20:51:12.359Z,101317.10
2022-12-25T20:53:45.907Z,101320.33
2022-12-25T20:56:20.383Z,101317.42
2022-12-25T20:58:57.754Z,101311.13
2022-12-25T21:01:32.739Z,101310.43
2022-12-25T21:04:05.673Z,101316.95
2022-12-25T21:06:38.662Z,101321.49
2022-12-25T21:09:11.372Z,101323.58
2022-12-25T21:11:44.478Z,101328.65
2022-12-25T21:14:17.524Z,101334.59
2022-12-25T21:16:50.884Z,101336.80
2022-12-25T21:19:23.569Z,101323.05
2022-12-25T21:21:56.752Z,101323.14
2022-12-25T21:24:29.707Z,101325.45
2022-12-25T21:27:03.067Z,101347.71
2022-12-25T21:29:35.853Z,101342.94
2022-12-25T21:32:27.297Z,101336.52
2022-12-25T21:35:00.264Z,101343.31
2022-12-25T21:37:34.718Z,101346.44
2022-12-25T21:40:14.391Z,101335.06
2022-12-25T21:42:50.407Z,101348.73
2022-12-25T21:45:23.528Z,101347.95
2022-12-25T21:48:01.882Z,101351.48
2022-12-25T21:50:55.498Z,101346.76
2022-12-25T21:53:28.559Z,101345.99
2022-12-25T21:56:06.381Z,101355.48
2022-12-25T21:58:39.926Z,101353.11
2022-12-25T22:01:17.355Z,101350.55
2022-12-25T22:03:50.013Z,101360.16
2022-12-25T22:06:41.309Z,101359.64
2022-12-25T22:09:14.018Z,101364.16
2022-12-25T22:12:05.365Z,101359.33
2022-12-25T22:14:55.809Z,101355.48
2022-12-25T22:17:53.370Z,101361.17
2022-12-25T22:20:28.638Z,101361.34
2022-12-25T22:23:01.388Z,101361.07
2022-12-25T22:25:34.033Z,101359.98
2022-12-25T22:28:08.871Z,101353.34
2022-12-25T22:30:44.736Z,101359.43
2022-12-25T22:33:17.755Z,101366.55
2022-12-25T22:35:50.837Z,101378.65
2022-12-25T22:38:23.671Z,101375.73
2022-12-25T22:40:56.476Z,101374.67
2022-12-25T22:44:06.294Z,101372.38
2022-12-25T22:46:25.367Z,101363.86
2022-12-25T22:48:58.719Z,101345.13
2022-12-25T22:51:32.133Z,101344.42
2022-12-25T22:54:05.150Z,101344.95
2022-12-25T22:56:37.920Z,101336.59
2022-12-25T22:59:10.823Z,101350.65
2022-12-25T23:01:43.995Z,101370.11
2022-12-25T23:04:16.827Z,101379.98
2022-12-25T23:06:49.802Z,101384.71
2022-12-25T23:09:28.194Z,101399.48
2022-12-25T23:12:01.039Z,101411.27
2022-12-25T23:14:43.320Z,101402.69
2022-12-25T23:17:33.897Z,101400.30
2022-12-25T23:20:25.630Z,101403.55
2022-12-25T23:23:17.450Z,101412.95
2022-12-25T23:26:12.182Z,101427.17
2022-12-25T23:29:04.419Z,101419.50
2022-12-25T23:31:38.473Z,101434.30
2022-12-25T23:34:12.235Z,101430.96
2022-12-25T23:36:45.019Z,101426.80
2022-12-25T23:39:18.087Z,101419.95
2022-12-25T23:41:51.226Z,101414.25
2022-12-25T23:44:24.197Z,101425.19
2022-12-25T23:46:56.942Z,101427.11
2022-12-25T23:49:30.484Z,101427.80
2022-12-25T23:52:03.738Z,101432.27
2022-12-25T23:54:37.075Z,101427.70
2022-12-25T23:57:09.910Z,101420.92
2022-12-25T23:59:43.186Z,101392.44
